createdAt,value
2022-10-18T00:01:04.724Z,4.85
2022-10-18T00:03:33.199Z,4.30
2022-10-18T00:06:01.639Z,4.57
2022-10-18T00:08:30.092Z,4.93
2022-10-18T00:10:58.466Z,4.35
2022-10-18T00:13:26.881Z,4.45
2022-10-18T00:15:57.497Z,4.40
2022-10-18T00:18:26.221Z,4.28
2022-10-18T00:21:01.517Z,4.32
2022-10-18T00:23:30.380Z,4.47
2022-10-18T00:26:02.465Z,4.20
2022-10-18T00:28:30.923Z,4.35
2022-10-18T00:31:10.568Z,4.68
2022-10-18T00:33:38.932Z,4.00
2022-10-18T00:36:07.646Z,4.60
2022-10-18T00:38:36.034Z,4.40
2022-10-18T00:41:04.809Z,4.30
2022-10-18T00:43:33.229Z,3.75
2022-10-18T00:46:02.971Z,4.30
2022-10-18T00:48:31.352Z,4.95
2022-10-18T00:50:59.724Z,3.90
2022-10-18T00:53:28.110Z,4.35
2022-10-18T00:55:56.493Z,4.00
2022-10-18T00:58:25.068Z,4.68
2022-10-18T01:00:53.438Z,4.60
2022-10-18T01:03:23.214Z,4.82
2022-10-18T01:05:51.637Z,4.35
2022-10-18T01:08:34.510Z,4.63
2022-10-18T01:11:09.068Z,4.30
2022-10-18T01:13:42.402Z,4.07
2022-10-18T01:16:15.314Z,4.95
2022-10-18T01:18:46.744Z,4.22
2022-10-18T01:21:19.901Z,4.38
2022-10-18T01:24:10.573Z,4.28
2022-10-18T01:26:45.378Z,4.25
2022-10-18T01:29:19.360Z,3.80
2022-10-18T01:31:50.915Z,3.97
2022-10-18T01:34:20.405Z,3.75
2022-10-18T01:36:50.381Z,4.50
2022-10-18T01:39:20.731Z,4.20
2022-10-18T01:41:51.293Z,4.05
2022-10-18T01:44:21.826Z,4.90
2022-10-18T01:46:52.323Z,4.30
2022-10-18T01:49:20.698Z,4.20
2022-10-18T01:51:49.105Z,4.32
2022-10-18T01:54:20.037Z,4.82
2022-10-18T01:56:52.163Z,3.95
2022-10-18T01:59:26.328Z,4.60
2022-10-18T02:02:00.687Z,4.10
2022-10-18T02:04:31.942Z,4.30
2022-10-18T02:07:03.768Z,4.25
2022-10-18T02:09:35.682Z,4.72
2022-10-18T02:12:05.305Z,4.47
2022-10-18T02:14:34.045Z,4.40
2022-10-18T02:17:05.118Z,4.97
2022-10-18T02:19:35.155Z,4.88
2022-10-18T02:22:03.742Z,4.30
2022-10-18T02:24:33.853Z,4.32
2022-10-18T02:27:02.295Z,4.80
2022-10-18T02:29:30.983Z,4.20
2022-10-18T02:32:06.272Z,4.68
2022-10-18T02:34:39.949Z,5.03
2022-10-18T02:37:09.543Z,4.68
2022-10-18T02:39:39.083Z,4.30
2022-10-18T02:42:08.383Z,4.78
2022-10-18T02:44:37.216Z,4.10
2022-10-18T02:47:06.736Z,5.25
2022-10-18T02:49:35.189Z,4.45
2022-10-18T02:52:05.055Z,5.22
2022-10-18T02:54:33.517Z,4.90
2022-10-18T02:57:01.897Z,4.82
2022-10-18T02:59:30.250Z,4.50
2022-10-18T03:01:58.693Z,5.00
2022-10-18T03:07:00.420Z,5.78
2022-10-18T03:09:30.270Z,5.40
2022-10-18T03:11:58.737Z,5.43
2022-10-18T03:14:27.112Z,5.57
2022-10-18T03:16:55.515Z,5.13
2022-10-18T03:19:23.884Z,4.97
2022-10-18T03:21:52.320Z,5.03
2022-10-18T03:24:20.760Z,5.05
2022-10-18T03:26:50.540Z,5.35
2022-10-18T03:29:18.912Z,5.90
2022-10-18T03:31:47.333Z,5.15
2022-10-18T03:34:16.926Z,4.82
2022-10-18T03:36:45.492Z,5.22
2022-10-18T03:39:13.902Z,5.47
2022-10-18T03:41:42.321Z,5.88
2022-10-18T03:44:12.168Z,5.97
2022-10-18T03:46:40.544Z,6.05
2022-10-18T03:49:08.928Z,5.72
2022-10-18T03:51:37.321Z,5.22
2022-10-18T03:54:05.921Z,5.32
2022-10-18T03:56:34.263Z,5.80
2022-10-18T03:59:04.521Z,5.50
2022-10-18T04:01:34.305Z,5.85
2022-10-18T04:04:02.782Z,5.45
2022-10-18T04:06:31.224Z,5.55
2022-10-18T04:08:59.601Z,5.90
2022-10-18T04:11:28.043Z,6.10
2022-10-18T04:13:56.437Z,6.63
2022-10-18T04:16:24.942Z,5.82
2022-10-18T04:18:54.768Z,5.88
2022-10-18T04:21:23.181Z,5.85
2022-10-18T04:23:52.024Z,6.68
2022-10-18T04:26:20.480Z,6.10
2022-10-18T04:28:48.905Z,6.45
2022-10-18T04:31:17.310Z,6.30
2022-10-18T04:33:45.702Z,7.18
2022-10-18T04:36:15.495Z,6.18
2022-10-18T04:38:43.862Z,6.10
2022-10-18T04:41:12.219Z,6.13
2022-10-18T04:43:40.707Z,6.40
2022-10-18T04:46:09.148Z,6.70
2022-10-18T04:48:37.636Z,6.28
2022-10-18T04:51:06.019Z,6.85
2022-10-18T04:53:36.172Z,6.40
2022-10-18T04:56:04.602Z,5.82
2022-10-18T04:58:33.055Z,7.75
2022-10-18T05:01:01.465Z,7.63
2022-10-18T05:03:29.878Z,8.13
2022-10-18T05:06:01.801Z,7.85
2022-10-18T05:08:31.539Z,10.30
2022-10-18T05:11:01.643Z,11.32
2022-10-18T05:13:30.573Z,11.23
2022-10-18T05:16:00.892Z,11.93
2022-10-18T05:18:29.496Z,11.60
2022-10-18T05:20:58.342Z,13.70
2022-10-18T05:23:26.850Z,11.93
2022-10-18T05:25:55.435Z,13.07
2022-10-18T05:28:41.470Z,12.88
2022-10-18T05:31:11.073Z,13.85
2022-10-18T05:33:39.491Z,14.38
2022-10-18T05:36:08.340Z,12.13
2022-10-18T05:41:10.153Z,13.27
2022-10-18T05:43:39.949Z,12.10
2022-10-18T05:46:13.708Z,13.65
2022-10-18T05:48:43.964Z,14.43
2022-10-18T05:51:12.390Z,12.52
2022-10-18T05:53:40.845Z,13.00
2022-10-18T05:56:11.787Z,13.30
2022-10-18T05:58:41.896Z,14.43
2022-10-18T06:01:10.929Z,14.18
2022-10-18T06:03:39.328Z,12.27
2022-10-18T06:06:08.526Z,13.35
2022-10-18T06:08:37.015Z,12.20
2022-10-18T06:11:07.969Z,14.13
2022-10-18T06:13:38.367Z,12.23
2022-10-18T06:16:08.679Z,12.50
2022-10-18T06:18:37.075Z,12.70
2022-10-18T06:21:05.544Z,11.63
2022-10-18T06:23:33.966Z,12.40
2022-10-18T06:26:02.756Z,11.13
2022-10-18T06:28:31.690Z,11.98
2022-10-18T06:31:00.075Z,12.32
2022-10-18T06:33:29.833Z,13.55
2022-10-18T06:35:59.202Z,15.48
2022-10-18T06:38:27.939Z,14.95
2022-10-18T06:40:56.734Z,17.23
2022-10-18T06:43:25.405Z,14.25
2022-10-18T06:45:54.148Z,13.95
2022-10-18T06:48:23.086Z,14.98
2022-10-18T06:50:57.266Z,16.08
2022-10-18T06:53:26.020Z,16.45
2022-10-18T06:55:54.414Z,17.23
2022-10-18T06:58:22.797Z,17.92
2022-10-18T07:00:51.189Z,18.65
2022-10-18T07:03:21.773Z,17.35
2022-10-18T07:05:50.162Z,17.90
2022-10-18T07:08:20.185Z,19.25
2022-10-18T07:10:53.266Z,20.08
2022-10-18T07:13:32.377Z,17.63
2022-10-18T07:16:02.018Z,20.60
2022-10-18T07:18:30.562Z,18.15
2022-10-18T07:21:01.229Z,19.30
2022-10-18T07:23:31.038Z,20.73
2022-10-18T07:25:59.507Z,20.23
2022-10-18T07:28:27.925Z,21.13
2022-10-18T07:30:56.288Z,20.33
2022-10-18T07:33:25.963Z,20.50
2022-10-18T07:35:54.306Z,18.38
2022-10-18T07:38:23.638Z,19.05
2022-10-18T07:40:58.268Z,21.27
2022-10-18T07:43:26.685Z,22.83
2022-10-18T07:45:55.207Z,23.48
2022-10-18T07:48:27.858Z,24.33
2022-10-18T07:50:56.261Z,22.17
2022-10-18T07:53:24.681Z,25.27
2022-10-18T07:55:53.049Z,24.63
2022-10-18T07:58:22.826Z,25.15
2022-10-18T08:00:51.283Z,26.42
2022-10-18T08:03:19.712Z,27.65
2022-10-18T08:05:52.939Z,25.90
2022-10-18T08:08:21.431Z,25.65
2022-10-18T08:10:49.783Z,25.27
2022-10-18T08:13:18.571Z,26.38
2022-10-18T08:15:48.352Z,29.80
2022-10-18T08:18:16.860Z,28.42
2022-10-18T08:20:45.750Z,30.95
2022-10-18T08:23:16.202Z,33.70
2022-10-18T08:25:44.639Z,31.75
2022-10-18T08:28:13.813Z,30.60
2022-10-18T08:30:42.332Z,32.60
2022-10-18T08:33:12.080Z,32.03
2022-10-18T08:35:40.552Z,35.70
2022-10-18T08:38:16.412Z,34.88
2022-10-18T08:40:47.819Z,36.17
2022-10-18T08:43:21.706Z,36.03
2022-10-18T08:45:51.545Z,38.83
2022-10-18T08:48:22.938Z,37.85
2022-10-18T08:50:52.007Z,36.20
2022-10-18T08:53:22.612Z,45.17
2022-10-18T08:55:52.666Z,48.28
2022-10-18T08:58:22.284Z,56.95
2022-10-18T09:00:54.967Z,59.25
2022-10-18T09:03:31.230Z,59.75
2022-10-18T09:06:04.654Z,54.83
2022-10-18T09:08:55.762Z,50.80
2022-10-18T09:11:29.031Z,48.08
2022-10-18T09:14:05.145Z,45.47
2022-10-18T09:16:40.225Z,41.38
2022-10-18T09:19:17.105Z,36.28
2022-10-18T09:21:50.151Z,37.53
2022-10-18T09:24:21.930Z,37.40
2022-10-18T09:26:51.248Z,37.53
2022-10-18T09:29:30.056Z,39.25
2022-10-18T09:32:04.599Z,38.33
2022-10-18T09:34:39.256Z,33.65
2022-10-18T09:37:13.394Z,33.05
2022-10-18T09:39:42.839Z,30.83
2022-10-18T09:42:15.227Z,32.47
2022-10-18T09:44:45.963Z,33.53
2022-10-18T09:47:17.114Z,33.25
2022-10-18T09:49:49.385Z,35.83
2022-10-18T09:52:20.571Z,38.15
2022-10-18T09:54:51.475Z,40.65
2022-10-18T09:57:22.876Z,43.65
2022-10-18T09:59:51.929Z,40.75
2022-10-18T10:02:22.036Z,42.20
2022-10-18T10:04:52.225Z,39.53
2022-10-18T10:07:22.213Z,37.35
2022-10-18T10:09:51.402Z,36.42
2022-10-18T10:12:30.160Z,35.70
2022-10-18T10:15:08.953Z,35.88
2022-10-18T10:17:37.708Z,32.55
2022-10-18T10:20:16.364Z,29.48
2022-10-18T10:22:47.830Z,27.95
2022-10-18T10:25:22.614Z,27.40
2022-10-18T10:27:51.259Z,29.15
2022-10-18T10:30:27.726Z,30.02
2022-10-18T10:32:56.976Z,29.25
2022-10-18T10:35:54.389Z,28.95
2022-10-18T10:38:24.575Z,30.83
2022-10-18T10:40:53.071Z,30.38
2022-10-18T10:43:40.347Z,28.42
2022-10-18T10:46:11.026Z,27.98
2022-10-18T10:48:43.867Z,26.02
2022-10-18T10:51:14.381Z,25.02
2022-10-18T10:53:45.512Z,25.10
2022-10-18T10:56:24.644Z,26.45
2022-10-18T10:58:54.114Z,27.98
2022-10-18T11:01:24.648Z,28.50
2022-10-18T11:03:53.809Z,29.42
2022-10-18T11:06:39.611Z,26.88
2022-10-18T11:09:12.710Z,23.05
2022-10-18T11:11:42.888Z,22.00
2022-10-18T11:14:31.054Z,23.25
2022-10-18T11:17:07.045Z,23.13
2022-10-18T11:19:39.316Z,23.40
2022-10-18T11:22:13.348Z,24.65
2022-10-18T11:24:41.999Z,22.48
2022-10-18T11:27:15.400Z,20.75
2022-10-18T11:29:47.304Z,20.95
2022-10-18T11:32:20.966Z,20.38
2022-10-18T11:34:58.995Z,20.77
2022-10-18T11:37:46.634Z,20.00
2022-10-18T11:40:24.121Z,20.08
2022-10-18T11:42:57.215Z,19.58
2022-10-18T11:48:05.688Z,19.42
2022-10-18T11:50:37.656Z,15.45
2022-10-18T11:53:13.187Z,15.35
2022-10-18T11:55:47.863Z,16.05
2022-10-18T11:58:28.231Z,13.90
2022-10-18T12:01:00.753Z,12.00
2022-10-18T12:03:32.568Z,11.80
2022-10-18T12:06:04.073Z,9.93
2022-10-18T12:08:37.960Z,8.93
2022-10-18T12:11:09.741Z,8.50
2022-10-18T12:13:40.939Z,8.98
2022-10-18T12:16:09.746Z,8.40
2022-10-18T12:18:41.217Z,9.00
2022-10-18T12:21:12.985Z,8.43
2022-10-18T12:23:47.897Z,8.25
2022-10-18T12:26:27.342Z,7.03
2022-10-18T12:29:02.061Z,7.70
2022-10-18T12:31:37.204Z,9.02
2022-10-18T12:34:11.889Z,7.50
2022-10-18T12:36:45.723Z,9.10
2022-10-18T12:39:29.060Z,8.48
2022-10-18T12:42:21.818Z,9.60
2022-10-18T12:44:50.702Z,9.88
2022-10-18T12:47:26.103Z,10.98
2022-10-18T12:49:58.339Z,10.18
2022-10-18T12:52:28.201Z,9.45
2022-10-18T12:55:06.145Z,7.90
2022-10-18T12:57:49.378Z,8.50
2022-10-18T13:00:32.652Z,8.38
2022-10-18T13:03:16.663Z,8.00
2022-10-18T13:05:56.428Z,7.70
2022-10-18T13:08:42.106Z,8.43
2022-10-18T13:11:29.381Z,8.98
2022-10-18T13:14:06.384Z,9.07
2022-10-18T13:16:40.820Z,9.90
2022-10-18T13:19:19.344Z,9.50
2022-10-18T13:21:50.305Z,8.88
2022-10-18T13:24:29.261Z,8.05
2022-10-18T13:27:34.524Z,6.90
2022-10-18T13:30:13.513Z,7.18
2022-10-18T13:32:48.190Z,6.78
2022-10-18T13:35:31.443Z,6.03
2022-10-18T13:38:00.359Z,6.75
2022-10-18T13:40:28.735Z,6.82
2022-10-18T13:42:58.563Z,5.88
2022-10-18T13:45:46.619Z,6.20
2022-10-18T13:48:33.460Z,5.03
2022-10-18T13:51:05.100Z,4.45
2022-10-18T13:53:46.373Z,4.25
2022-10-18T13:56:34.094Z,4.97
2022-10-18T13:59:15.583Z,4.75
2022-10-18T14:01:53.026Z,4.35
2022-10-18T14:04:39.402Z,4.03
2022-10-18T14:07:08.582Z,3.92
2022-10-18T14:09:44.551Z,3.80
2022-10-18T14:12:20.359Z,3.58
2022-10-18T14:14:53.217Z,4.05
2022-10-18T14:17:27.313Z,4.47
2022-10-18T14:19:58.297Z,5.20
2022-10-18T14:22:28.591Z,5.03
2022-10-18T14:24:57.936Z,5.18
2022-10-18T14:27:27.326Z,3.47
2022-10-18T14:30:11.048Z,4.10
2022-10-18T14:32:39.472Z,4.35
2022-10-18T14:35:32.099Z,3.47
2022-10-18T14:38:02.264Z,4.40
2022-10-18T14:40:32.261Z,4.70
2022-10-18T14:43:03.770Z,3.78
2022-10-18T14:45:33.549Z,3.30
2022-10-18T14:48:11.168Z,4.30
2022-10-18T14:50:39.524Z,4.50
2022-10-18T14:53:08.752Z,3.88
2022-10-18T14:55:38.987Z,2.95
2022-10-18T14:58:11.075Z,3.08
2022-10-18T15:00:42.836Z,2.85
2022-10-18T15:03:15.200Z,3.13
2022-10-18T15:05:53.639Z,3.20
2022-10-18T15:08:22.476Z,3.20
2022-10-18T15:10:51.295Z,3.33
2022-10-18T15:13:19.813Z,3.92
2022-10-18T15:15:49.657Z,3.22
2022-10-18T15:18:22.220Z,3.05
2022-10-18T15:21:05.461Z,3.40
2022-10-18T15:23:33.871Z,3.03
2022-10-18T15:26:04.265Z,2.90
2022-10-18T15:28:35.888Z,2.10
2022-10-18T15:31:06.746Z,2.35
2022-10-18T15:33:35.424Z,2.25
2022-10-18T15:36:11.178Z,2.45
2022-10-18T15:38:40.578Z,2.42
2022-10-18T15:41:24.008Z,2.20
2022-10-18T15:43:52.453Z,2.53
2022-10-18T15:46:32.804Z,2.67
2022-10-18T15:49:22.569Z,2.50
2022-10-18T15:51:52.116Z,2.50
2022-10-18T15:54:21.066Z,3.08
2022-10-18T15:56:49.471Z,3.05
2022-10-18T15:59:24.005Z,2.53
2022-10-18T16:01:54.331Z,3.05
2022-10-18T16:04:24.448Z,2.85
2022-10-18T16:06:52.907Z,2.83
2022-10-18T16:09:22.508Z,2.90
2022-10-18T16:11:55.810Z,2.72
2022-10-18T16:14:26.192Z,3.15
2022-10-18T16:17:02.148Z,3.00
2022-10-18T16:19:30.558Z,3.03
2022-10-18T16:22:03.639Z,2.97
2022-10-18T16:24:34.652Z,2.35
2022-10-18T16:27:03.059Z,3.40
2022-10-18T16:29:32.944Z,2.90
2022-10-18T16:32:02.800Z,3.50
2022-10-18T16:34:32.194Z,2.50
2022-10-18T16:37:00.787Z,2.53
2022-10-18T16:39:32.058Z,2.60
2022-10-18T16:42:00.475Z,2.92
2022-10-18T16:44:28.871Z,2.90
2022-10-18T16:46:57.244Z,2.70
2022-10-18T16:49:27.772Z,3.88
2022-10-18T16:51:56.536Z,4.47
2022-10-18T16:54:24.879Z,4.25
2022-10-18T16:56:53.254Z,3.03
2022-10-18T16:59:24.878Z,3.60
2022-10-18T17:01:53.337Z,3.80
2022-10-18T17:04:21.730Z,3.97
2022-10-18T17:06:51.599Z,3.88
2022-10-18T17:09:20.072Z,3.90
2022-10-18T17:11:48.492Z,3.58
2022-10-18T17:14:16.905Z,3.95
2022-10-18T17:16:48.283Z,3.92
2022-10-18T17:19:21.387Z,3.88
2022-10-18T17:21:51.165Z,3.33
2022-10-18T17:24:19.529Z,3.67
2022-10-18T17:26:47.975Z,3.35
2022-10-18T17:29:16.446Z,3.47
2022-10-18T17:31:44.917Z,4.15
2022-10-18T17:34:16.454Z,4.22
2022-10-18T17:36:47.424Z,4.00
2022-10-18T17:39:17.180Z,3.83
2022-10-18T17:41:45.597Z,4.30
2022-10-18T17:44:13.987Z,4.40
2022-10-18T17:46:42.527Z,4.07
2022-10-18T17:49:10.957Z,4.13
2022-10-18T17:51:40.615Z,3.63
2022-10-18T17:54:09.443Z,3.88
2022-10-18T17:56:39.302Z,3.72
2022-10-18T17:59:07.884Z,4.22
2022-10-18T18:01:37.099Z,4.57
2022-10-18T18:04:05.632Z,4.03
2022-10-18T18:06:35.132Z,3.90
2022-10-18T18:09:06.844Z,4.72
2022-10-18T18:11:35.598Z,4.07
2022-10-18T18:14:08.902Z,4.00
2022-10-18T18:16:37.998Z,4.30
2022-10-18T18:19:09.628Z,4.60
2022-10-18T18:21:39.009Z,3.65
2022-10-18T18:24:08.005Z,4.60
2022-10-18T18:26:37.245Z,3.90
2022-10-18T18:29:07.164Z,4.45
2022-10-18T18:31:38.895Z,3.75
2022-10-18T18:34:11.464Z,3.90
2022-10-18T18:36:40.152Z,4.22
2022-10-18T18:39:08.979Z,4.57
2022-10-18T18:41:38.490Z,4.68
2022-10-18T18:44:08.398Z,5.10
2022-10-18T18:46:38.711Z,4.80
2022-10-18T18:49:08.015Z,5.60
2022-10-18T18:51:38.071Z,5.90
2022-10-18T18:54:06.640Z,5.53
2022-10-18T18:56:35.110Z,5.53
2022-10-18T18:59:03.600Z,5.53
2022-10-18T19:01:35.010Z,5.57
2022-10-18T19:04:04.013Z,5.40
2022-10-18T19:06:33.356Z,5.25
2022-10-18T19:09:04.072Z,5.45
2022-10-18T19:11:33.848Z,5.45
2022-10-18T19:14:02.640Z,4.95
2022-10-18T19:16:32.047Z,5.03
2022-10-18T19:19:05.066Z,4.93
2022-10-18T19:21:34.272Z,5.28
2022-10-18T19:24:02.920Z,5.70
2022-10-18T19:26:33.153Z,5.82
2022-10-18T19:29:03.053Z,5.20
2022-10-18T19:31:31.693Z,4.60
2022-10-18T19:34:00.618Z,5.18
2022-10-18T19:36:31.051Z,5.03
2022-10-18T19:39:00.020Z,5.30
2022-10-18T19:41:29.982Z,4.95
2022-10-18T19:43:58.693Z,4.85
2022-10-18T19:46:27.202Z,4.40
2022-10-18T19:48:55.691Z,4.22
2022-10-18T19:51:27.902Z,4.13
2022-10-18T19:53:58.345Z,4.07
2022-10-18T19:56:28.073Z,4.30
2022-10-18T19:58:57.009Z,4.20
2022-10-18T20:01:26.152Z,4.20
2022-10-18T20:03:55.201Z,4.72
2022-10-18T20:06:23.947Z,4.28
2022-10-18T20:08:52.584Z,3.97
2022-10-18T20:11:23.879Z,4.07
2022-10-18T20:13:55.979Z,3.83
2022-10-18T20:16:28.429Z,5.22
2022-10-18T20:18:58.250Z,4.55
2022-10-18T20:21:27.231Z,4.20
2022-10-18T20:23:55.927Z,4.28
2022-10-18T20:26:26.399Z,4.40
2022-10-18T20:28:57.941Z,4.63
2022-10-18T20:31:27.364Z,4.35
2022-10-18T20:33:56.427Z,4.40
2022-10-18T20:36:25.147Z,4.50
2022-10-18T20:38:54.869Z,4.90
2022-10-18T20:41:24.408Z,4.97
2022-10-18T20:43:54.963Z,3.97
2022-10-18T20:46:24.047Z,3.90
2022-10-18T20:48:52.890Z,4.43
2022-10-18T20:51:21.840Z,4.22
2022-10-18T20:53:50.801Z,4.07
2022-10-18T20:56:20.653Z,4.22
2022-10-18T20:58:50.088Z,4.57
2022-10-18T21:01:20.930Z,4.50
2022-10-18T21:03:50.689Z,5.03
2022-10-18T21:06:20.046Z,4.68
2022-10-18T21:08:48.605Z,4.90
2022-10-18T21:11:17.105Z,4.20
2022-10-18T21:13:45.531Z,4.95
2022-10-18T21:16:13.931Z,4.15
2022-10-18T21:18:44.009Z,4.43
2022-10-18T21:23:46.533Z,4.70
2022-10-18T21:26:15.891Z,4.47
2022-10-18T21:28:44.417Z,4.93
2022-10-18T21:31:14.605Z,3.95
2022-10-18T21:33:44.868Z,4.30
2022-10-18T21:36:13.790Z,4.55
2022-10-18T21:38:45.303Z,4.80
2022-10-18T21:41:14.378Z,4.38
2022-10-18T21:43:44.025Z,3.88
2022-10-18T21:46:13.332Z,3.80
2022-10-18T21:48:44.184Z,4.05
2022-10-18T21:51:15.005Z,3.63
2022-10-18T21:53:44.738Z,3.63
2022-10-18T21:56:14.282Z,3.80
2022-10-18T21:58:43.493Z,3.65
2022-10-18T22:01:12.653Z,3.42
2022-10-18T22:03:41.336Z,3.78
2022-10-18T22:06:13.751Z,3.83
2022-10-18T22:08:44.083Z,3.38
2022-10-18T22:11:12.549Z,4.00
2022-10-18T22:13:41.599Z,3.42
2022-10-18T22:16:10.659Z,3.38
2022-10-18T22:18:39.223Z,3.22
2022-10-18T22:21:08.447Z,3.80
2022-10-18T22:23:37.568Z,3.47
2022-10-18T22:26:08.231Z,4.32
2022-10-18T22:28:37.062Z,3.85
2022-10-18T22:31:06.000Z,3.40
2022-10-18T22:33:34.424Z,3.40
2022-10-18T22:36:02.824Z,4.18
2022-10-18T22:38:35.086Z,3.28
2022-10-18T22:41:05.720Z,3.83
2022-10-18T22:43:35.606Z,4.30
2022-10-18T22:46:04.399Z,3.88
2022-10-18T22:48:33.387Z,3.90
2022-10-18T22:51:02.048Z,4.15
2022-10-18T22:53:30.469Z,3.67
2022-10-18T22:55:59.159Z,3.70
2022-10-18T22:58:27.829Z,3.88
2022-10-18T23:01:03.251Z,3.58
2022-10-18T23:03:31.640Z,3.83
2022-10-18T23:06:00.410Z,4.03
2022-10-18T23:08:29.238Z,3.35
2022-10-18T23:10:58.875Z,4.03
2022-10-18T23:13:27.914Z,4.03
2022-10-18T23:16:04.667Z,4.03
2022-10-18T23:18:34.098Z,4.47
2022-10-18T23:21:03.516Z,4.15
2022-10-18T23:23:35.075Z,4.30
2022-10-18T23:26:04.453Z,4.35
2022-10-18T23:28:34.960Z,4.45
2022-10-18T23:31:08.432Z,4.15
2022-10-18T23:33:36.949Z,4.60
2022-10-18T23:36:05.568Z,4.32
2022-10-18T23:38:34.258Z,4.53
2022-10-18T23:41:02.671Z,4.65
2022-10-18T23:43:31.069Z,4.38
2022-10-18T23:45:59.486Z,4.88
2022-10-18T23:48:29.305Z,4.00
2022-10-18T23:50:58.037Z,4.43
2022-10-18T23:53:26.517Z,4.25
2022-10-18T23:55:55.780Z,4.72
2022-10-18T23:58:24.237Z,4.25
